sensor_id;sensor_type;location;lat;lon;timestamp;temperature;humidity
25436;DHT22;13363;52.772;-3.890;2022-11-21T00:00:42;5.40;99.90
25436;DHT22;13363;52.772;-3.890;2022-11-21T00:03:09;5.40;99.90
25436;DHT22;13363;52.772;-3.890;2022-11-21T00:05:38;5.50;99.90
25436;DHT22;13363;52.772;-3.890;2022-11-21T00:08:06;5.50;99.90
25436;DHT22;13363;52.772;-3.890;2022-11-21T00:10:33;5.40;99.90
25436;DHT22;13363;52.772;-3.890;2022-11-21T00:12:58;5.30;99.90
25436;DHT22;13363;52.772;-3.890;2022-11-21T00:15:25;5.30;99.90
25436;DHT22;13363;52.772;-3.890;2022-11-21T00:17:51;5.30;99.90
25436;DHT22;13363;52.772;-3.890;2022-11-21T00:20:18;5.30;99.90
25436;DHT22;13363;52.772;-3.890;2022-11-21T00:22:45;5.50;99.90
25436;DHT22;13363;52.772;-3.890;2022-11-21T00:25:11;5.40;99.90
25436;DHT22;13363;52.772;-3.890;2022-11-21T00:27:37;5.40;99.90
25436;DHT22;13363;52.772;-3.890;2022-11-21T00:30:06;5.30;99.90
25436;DHT22;13363;52.772;-3.890;2022-11-21T00:32:32;5.30;99.90
25436;DHT22;13363;52.772;-3.890;2022-11-21T00:34:58;5.30;99.90
25436;DHT22;13363;52.772;-3.890;2022-11-21T00:37:23;5.30;99.90
25436;DHT22;13363;52.772;-3.890;2022-11-21T00:39:49;5.30;99.90
25436;DHT22;13363;52.772;-3.890;2022-11-21T00:42:15;5.30;99.90
25436;DHT22;13363;52.772;-3.890;2022-11-21T00:44:41;5.40;99.90
25436;DHT22;13363;52.772;-3.890;2022-11-21T00:47:07;5.40;99.90
25436;DHT22;13363;52.772;-3.890;2022-11-21T00:49:32;5.40;99.90
25436;DHT22;13363;52.772;-3.890;2022-11-21T00:51:58;5.40;99.90
25436;DHT22;13363;52.772;-3.890;2022-11-21T00:54:24;5.40;99.90
25436;DHT22;13363;52.772;-3.890;2022-11-21T00:56:50;5.40;99.90
25436;DHT22;13363;52.772;-3.890;2022-11-21T00:59:16;5.30;99.90
25436;DHT22;13363;52.772;-3.890;2022-11-21T01:01:41;5.20;99.90
25436;DHT22;13363;52.772;-3.890;2022-11-21T01:04:07;5.40;99.90
25436;DHT22;13363;52.772;-3.890;2022-11-21T01:06:33;5.30;99.90
25436;DHT22;13363;52.772;-3.890;2022-11-21T01:09:01;5.40;99.90
25436;DHT22;13363;52.772;-3.890;2022-11-21T01:11:27;5.40;99.90
25436;DHT22;13363;52.772;-3.890;2022-11-21T01:13:54;5.50;99.90
25436;DHT22;13363;52.772;-3.890;2022-11-21T01:16:22;5.50;99.90
25436;DHT22;13363;52.772;-3.890;2022-11-21T01:18:48;5.60;99.90
25436;DHT22;13363;52.772;-3.890;2022-11-21T01:23:41;5.70;99.90
25436;DHT22;13363;52.772;-3.890;2022-11-21T01:26:16;5.70;99.90
25436;DHT22;13363;52.772;-3.890;2022-11-21T01:28:43;6.00;99.90
25436;DHT22;13363;52.772;-3.890;2022-11-21T01:31:11;5.90;99.90
25436;DHT22;13363;52.772;-3.890;2022-11-21T01:33:37;6.00;99.90
25436;DHT22;13363;52.772;-3.890;2022-11-21T01:36:15;5.90;99.90
25436;DHT22;13363;52.772;-3.890;2022-11-21T01:38:44;5.90;99.90
25436;DHT22;13363;52.772;-3.890;2022-11-21T01:41:12;5.90;99.90
25436;DHT22;13363;52.772;-3.890;2022-11-21T01:43:38;5.90;99.90
25436;DHT22;13363;52.772;-3.890;2022-11-21T01:51:11;6.10;99.90
25436;DHT22;13363;52.772;-3.890;2022-11-21T01:53:40;6.30;99.90
25436;DHT22;13363;52.772;-3.890;2022-11-21T01:56:09;6.20;99.90
25436;DHT22;13363;52.772;-3.890;2022-11-21T01:58:37;6.10;99.90
25436;DHT22;13363;52.772;-3.890;2022-11-21T02:01:04;6.10;99.90
25436;DHT22;13363;52.772;-3.890;2022-11-21T02:03:32;6.30;99.90
25436;DHT22;13363;52.772;-3.890;2022-11-21T02:06:01;6.30;99.90
25436;DHT22;13363;52.772;-3.890;2022-11-21T02:08:26;6.40;99.90
25436;DHT22;13363;52.772;-3.890;2022-11-21T02:13:42;6.50;99.90
25436;DHT22;13363;52.772;-3.890;2022-11-21T02:16:08;6.40;99.90
25436;DHT22;13363;52.772;-3.890;2022-11-21T02:18:34;6.40;99.90
25436;DHT22;13363;52.772;-3.890;2022-11-21T02:21:11;6.40;99.90
25436;DHT22;13363;52.772;-3.890;2022-11-21T02:23:56;6.30;99.90
25436;DHT22;13363;52.772;-3.890;2022-11-21T02:26:25;6.40;99.90
25436;DHT22;13363;52.772;-3.890;2022-11-21T02:28:51;6.30;99.90
25436;DHT22;13363;52.772;-3.890;2022-11-21T02:31:17;6.50;99.90
25436;DHT22;13363;52.772;-3.890;2022-11-21T02:33:43;6.40;99.90
25436;DHT22;13363;52.772;-3.890;2022-11-21T02:36:32;6.40;99.90
25436;DHT22;13363;52.772;-3.890;2022-11-21T02:39:00;6.30;99.90
25436;DHT22;13363;52.772;-3.890;2022-11-21T02:41:27;6.20;99.90
25436;DHT22;13363;52.772;-3.890;2022-11-21T02:44:11;6.30;99.90
25436;DHT22;13363;52.772;-3.890;2022-11-21T02:46:47;6.40;99.90
25436;DHT22;13363;52.772;-3.890;2022-11-21T02:49:18;6.50;99.90
25436;DHT22;13363;52.772;-3.890;2022-11-21T02:51:47;6.40;99.90
25436;DHT22;13363;52.772;-3.890;2022-11-21T02:54:13;6.40;99.90
25436;DHT22;13363;52.772;-3.890;2022-11-21T02:56:38;6.50;99.90
25436;DHT22;13363;52.772;-3.890;2022-11-21T02:59:04;6.50;99.90
25436;DHT22;13363;52.772;-3.890;2022-11-21T03:01:30;6.50;99.90
25436;DHT22;13363;52.772;-3.890;2022-11-21T03:03:56;6.50;99.90
25436;DHT22;13363;52.772;-3.890;2022-11-21T03:06:21;6.80;99.90
25436;DHT22;13363;52.772;-3.890;2022-11-21T03:08:47;6.80;99.90
25436;DHT22;13363;52.772;-3.890;2022-11-21T03:11:13;6.90;99.90
25436;DHT22;13363;52.772;-3.890;2022-11-21T03:13:39;6.90;99.90
25436;DHT22;13363;52.772;-3.890;2022-11-21T03:16:05;6.90;99.90
25436;DHT22;13363;52.772;-3.890;2022-11-21T03:18:30;7.10;99.90
25436;DHT22;13363;52.772;-3.890;2022-11-21T03:20:56;7.30;99.90
25436;DHT22;13363;52.772;-3.890;2022-11-21T03:23:22;7.50;99.90
25436;DHT22;13363;52.772;-3.890;2022-11-21T03:25:48;7.50;99.90
25436;DHT22;13363;52.772;-3.890;2022-11-21T03:28:14;7.70;99.90
25436;DHT22;13363;52.772;-3.890;2022-11-21T03:30:39;7.80;99.90
25436;DHT22;13363;52.772;-3.890;2022-11-21T03:33:05;8.00;99.90
25436;DHT22;13363;52.772;-3.890;2022-11-21T03:35:31;8.10;99.90
25436;DHT22;13363;52.772;-3.890;2022-11-21T03:37:57;8.20;99.90
25436;DHT22;13363;52.772;-3.890;2022-11-21T03:40:23;8.10;99.90
25436;DHT22;13363;52.772;-3.890;2022-11-21T03:42:49;8.00;99.90
25436;DHT22;13363;52.772;-3.890;2022-11-21T03:45:15;8.10;99.90
25436;DHT22;13363;52.772;-3.890;2022-11-21T03:47:41;8.30;99.90
25436;DHT22;13363;52.772;-3.890;2022-11-21T03:50:07;8.40;99.90
25436;DHT22;13363;52.772;-3.890;2022-11-21T03:52:33;8.60;99.90
25436;DHT22;13363;52.772;-3.890;2022-11-21T03:54:58;8.80;99.90
25436;DHT22;13363;52.772;-3.890;2022-11-21T03:57:24;8.80;99.90
25436;DHT22;13363;52.772;-3.890;2022-11-21T03:59:50;8.80;99.90
25436;DHT22;13363;52.772;-3.890;2022-11-21T04:02:16;8.80;99.90
25436;DHT22;13363;52.772;-3.890;2022-11-21T04:04:42;8.80;99.90
25436;DHT22;13363;52.772;-3.890;2022-11-21T04:07:07;8.90;99.90
25436;DHT22;13363;52.772;-3.890;2022-11-21T04:09:33;8.90;99.90
25436;DHT22;13363;52.772;-3.890;2022-11-21T04:11:59;8.80;99.90
25436;DHT22;13363;52.772;-3.890;2022-11-21T04:14:25;8.80;99.90
25436;DHT22;13363;52.772;-3.890;2022-11-21T04:16:51;8.80;99.90
25436;DHT22;13363;52.772;-3.890;2022-11-21T04:19:16;8.70;99.90
25436;DHT22;13363;52.772;-3.890;2022-11-21T04:21:42;8.60;99.90
25436;DHT22;13363;52.772;-3.890;2022-11-21T04:24:08;8.60;99.90
25436;DHT22;13363;52.772;-3.890;2022-11-21T04:26:34;8.70;99.90
25436;DHT22;13363;52.772;-3.890;2022-11-21T04:29:00;8.70;99.90
25436;DHT22;13363;52.772;-3.890;2022-11-21T04:31:25;8.80;99.90
25436;DHT22;13363;52.772;-3.890;2022-11-21T04:33:51;8.80;99.90
25436;DHT22;13363;52.772;-3.890;2022-11-21T04:36:17;8.80;99.90
25436;DHT22;13363;52.772;-3.890;2022-11-21T04:38:43;8.70;99.90
25436;DHT22;13363;52.772;-3.890;2022-11-21T04:41:09;8.60;99.90
25436;DHT22;13363;52.772;-3.890;2022-11-21T04:43:35;8.50;99.90
25436;DHT22;13363;52.772;-3.890;2022-11-21T04:46:01;8.50;99.90
25436;DHT22;13363;52.772;-3.890;2022-11-21T04:48:26;8.50;99.90
25436;DHT22;13363;52.772;-3.890;2022-11-21T04:50:52;8.60;99.90
25436;DHT22;13363;52.772;-3.890;2022-11-21T04:53:18;8.80;99.90
25436;DHT22;13363;52.772;-3.890;2022-11-21T04:55:44;8.90;99.90
25436;DHT22;13363;52.772;-3.890;2022-11-21T04:58:10;9.00;99.90
25436;DHT22;13363;52.772;-3.890;2022-11-21T05:00:35;9.10;99.90
25436;DHT22;13363;52.772;-3.890;2022-11-21T05:03:05;9.20;99.90
25436;DHT22;13363;52.772;-3.890;2022-11-21T05:05:31;9.20;99.90
25436;DHT22;13363;52.772;-3.890;2022-11-21T05:07:57;9.30;99.90
25436;DHT22;13363;52.772;-3.890;2022-11-21T05:10:23;9.20;99.90
25436;DHT22;13363;52.772;-3.890;2022-11-21T05:12:59;9.30;99.90
25436;DHT22;13363;52.772;-3.890;2022-11-21T05:15:44;9.30;99.90
25436;DHT22;13363;52.772;-3.890;2022-11-21T05:18:10;9.20;99.90
25436;DHT22;13363;52.772;-3.890;2022-11-21T05:20:36;9.10;99.90
25436;DHT22;13363;52.772;-3.890;2022-11-21T05:23:01;9.10;99.90
25436;DHT22;13363;52.772;-3.890;2022-11-21T05:25:27;9.00;99.90
25436;DHT22;13363;52.772;-3.890;2022-11-21T05:27:56;9.30;99.90
25436;DHT22;13363;52.772;-3.890;2022-11-21T05:30:22;9.40;99.90
25436;DHT22;13363;52.772;-3.890;2022-11-21T05:32:48;9.30;99.90
25436;DHT22;13363;52.772;-3.890;2022-11-21T05:35:14;9.30;99.90
25436;DHT22;13363;52.772;-3.890;2022-11-21T05:37:40;9.40;99.90
25436;DHT22;13363;52.772;-3.890;2022-11-21T05:40:06;9.60;99.90
25436;DHT22;13363;52.772;-3.890;2022-11-21T05:42:32;9.50;99.90
25436;DHT22;13363;52.772;-3.890;2022-11-21T05:45:16;9.40;99.90
25436;DHT22;13363;52.772;-3.890;2022-11-21T05:47:42;9.40;99.90
25436;DHT22;13363;52.772;-3.890;2022-11-21T05:50:08;9.60;99.90
25436;DHT22;13363;52.772;-3.890;2022-11-21T05:52:34;9.60;99.90
25436;DHT22;13363;52.772;-3.890;2022-11-21T05:55:00;9.60;99.90
25436;DHT22;13363;52.772;-3.890;2022-11-21T05:57:25;9.60;99.90
25436;DHT22;13363;52.772;-3.890;2022-11-21T05:59:51;9.60;99.90
25436;DHT22;13363;52.772;-3.890;2022-11-21T06:02:17;9.60;99.90
25436;DHT22;13363;52.772;-3.890;2022-11-21T06:05:01;9.50;99.90
25436;DHT22;13363;52.772;-3.890;2022-11-21T06:07:27;9.40;99.90
25436;DHT22;13363;52.772;-3.890;2022-11-21T06:09:53;9.30;99.90
25436;DHT22;13363;52.772;-3.890;2022-11-21T06:12:18;9.30;99.90
25436;DHT22;13363;52.772;-3.890;2022-11-21T06:14:44;9.30;99.90
25436;DHT22;13363;52.772;-3.890;2022-11-21T06:17:11;9.40;99.90
25436;DHT22;13363;52.772;-3.890;2022-11-21T06:19:37;9.30;99.90
25436;DHT22;13363;52.772;-3.890;2022-11-21T06:22:02;9.40;99.90
25436;DHT22;13363;52.772;-3.890;2022-11-21T06:24:28;9.40;99.90
25436;DHT22;13363;52.772;-3.890;2022-11-21T06:26:54;9.30;99.90
25436;DHT22;13363;52.772;-3.890;2022-11-21T06:29:20;9.30;99.90
25436;DHT22;13363;52.772;-3.890;2022-11-21T06:31:46;9.30;99.90
25436;DHT22;13363;52.772;-3.890;2022-11-21T06:34:12;9.30;99.90
25436;DHT22;13363;52.772;-3.890;2022-11-21T06:36:38;9.40;99.90
25436;DHT22;13363;52.772;-3.890;2022-11-21T06:39:04;9.60;99.90
25436;DHT22;13363;52.772;-3.890;2022-11-21T06:41:29;9.70;99.90
25436;DHT22;13363;52.772;-3.890;2022-11-21T06:43:59;9.70;99.90
25436;DHT22;13363;52.772;-3.890;2022-11-21T06:46:26;9.80;99.90
25436;DHT22;13363;52.772;-3.890;2022-11-21T06:48:52;9.60;99.90
25436;DHT22;13363;52.772;-3.890;2022-11-21T06:51:21;9.60;99.90
25436;DHT22;13363;52.772;-3.890;2022-11-21T06:53:51;9.70;99.90
25436;DHT22;13363;52.772;-3.890;2022-11-21T06:56:20;9.70;99.90
25436;DHT22;13363;52.772;-3.890;2022-11-21T06:58:46;9.70;99.90
25436;DHT22;13363;52.772;-3.890;2022-11-21T07:01:12;9.70;99.90
25436;DHT22;13363;52.772;-3.890;2022-11-21T07:03:38;9.90;99.90
25436;DHT22;13363;52.772;-3.890;2022-11-21T07:06:05;9.80;99.90
25436;DHT22;13363;52.772;-3.890;2022-11-21T07:08:32;9.70;99.90
25436;DHT22;13363;52.772;-3.890;2022-11-21T07:11:04;9.80;99.90
25436;DHT22;13363;52.772;-3.890;2022-11-21T07:13:31;9.80;99.90
25436;DHT22;13363;52.772;-3.890;2022-11-21T07:16:06;9.70;99.90
25436;DHT22;13363;52.772;-3.890;2022-11-21T07:18:33;9.70;99.90
25436;DHT22;13363;52.772;-3.890;2022-11-21T07:21:03;9.60;99.90
25436;DHT22;13363;52.772;-3.890;2022-11-21T07:23:30;9.50;99.90
25436;DHT22;13363;52.772;-3.890;2022-11-21T07:25:59;9.50;99.90
25436;DHT22;13363;52.772;-3.890;2022-11-21T07:28:29;9.50;99.90
25436;DHT22;13363;52.772;-3.890;2022-11-21T07:30:56;9.50;99.90
25436;DHT22;13363;52.772;-3.890;2022-11-21T07:33:21;9.50;99.90
25436;DHT22;13363;52.772;-3.890;2022-11-21T07:35:47;9.50;99.90
25436;DHT22;13363;52.772;-3.890;2022-11-21T07:38:13;9.50;99.90
25436;DHT22;13363;52.772;-3.890;2022-11-21T07:40:39;9.50;99.90
25436;DHT22;13363;52.772;-3.890;2022-11-21T07:43:05;9.60;99.90
25436;DHT22;13363;52.772;-3.890;2022-11-21T07:45:32;9.60;99.90
25436;DHT22;13363;52.772;-3.890;2022-11-21T07:48:03;9.50;99.90
25436;DHT22;13363;52.772;-3.890;2022-11-21T07:50:29;9.50;99.90
25436;DHT22;13363;52.772;-3.890;2022-11-21T07:52:57;9.40;99.90
25436;DHT22;13363;52.772;-3.890;2022-11-21T07:55:23;9.40;99.90
25436;DHT22;13363;52.772;-3.890;2022-11-21T07:58:00;9.40;99.90
25436;DHT22;13363;52.772;-3.890;2022-11-21T08:00:27;9.50;99.90
25436;DHT22;13363;52.772;-3.890;2022-11-21T08:02:53;9.50;99.90
25436;DHT22;13363;52.772;-3.890;2022-11-21T08:05:19;9.50;99.90
25436;DHT22;13363;52.772;-3.890;2022-11-21T08:07:46;9.60;99.90
25436;DHT22;13363;52.772;-3.890;2022-11-21T08:10:12;9.60;99.90
25436;DHT22;13363;52.772;-3.890;2022-11-21T08:12:37;9.60;99.90
25436;DHT22;13363;52.772;-3.890;2022-11-21T08:15:04;9.50;99.90
25436;DHT22;13363;52.772;-3.890;2022-11-21T08:17:31;9.60;99.90
25436;DHT22;13363;52.772;-3.890;2022-11-21T08:19:57;9.70;99.90
25436;DHT22;13363;52.772;-3.890;2022-11-21T08:22:25;9.70;99.90
25436;DHT22;13363;52.772;-3.890;2022-11-21T08:24:51;9.70;99.90
25436;DHT22;13363;52.772;-3.890;2022-11-21T08:27:19;9.70;99.90
25436;DHT22;13363;52.772;-3.890;2022-11-21T08:29:46;9.80;99.90
25436;DHT22;13363;52.772;-3.890;2022-11-21T08:32:12;9.90;99.90
25436;DHT22;13363;52.772;-3.890;2022-11-21T08:34:38;9.80;99.90
25436;DHT22;13363;52.772;-3.890;2022-11-21T08:37:04;9.80;99.90
25436;DHT22;13363;52.772;-3.890;2022-11-21T08:39:30;9.80;99.90
25436;DHT22;13363;52.772;-3.890;2022-11-21T08:41:56;9.80;99.90
25436;DHT22;13363;52.772;-3.890;2022-11-21T08:44:31;9.70;99.90
25436;DHT22;13363;52.772;-3.890;2022-11-21T08:46:58;9.70;99.90
25436;DHT22;13363;52.772;-3.890;2022-11-21T08:49:24;9.70;99.90
25436;DHT22;13363;52.772;-3.890;2022-11-21T08:51:50;9.70;99.90
25436;DHT22;13363;52.772;-3.890;2022-11-21T08:54:18;9.80;99.90
25436;DHT22;13363;52.772;-3.890;2022-11-21T08:56:44;9.70;99.90
25436;DHT22;13363;52.772;-3.890;2022-11-21T08:59:10;9.70;99.90
25436;DHT22;13363;52.772;-3.890;2022-11-21T09:01:36;9.70;99.90
25436;DHT22;13363;52.772;-3.890;2022-11-21T09:04:03;9.70;99.90
25436;DHT22;13363;52.772;-3.890;2022-11-21T09:06:29;9.80;99.90
25436;DHT22;13363;52.772;-3.890;2022-11-21T09:08:54;9.80;99.90
25436;DHT22;13363;52.772;-3.890;2022-11-21T09:11:20;9.80;99.90
25436;DHT22;13363;52.772;-3.890;2022-11-21T09:13:46;9.80;99.90
25436;DHT22;13363;52.772;-3.890;2022-11-21T09:16:35;9.70;99.90
25436;DHT22;13363;52.772;-3.890;2022-11-21T09:19:20;9.70;99.90
25436;DHT22;13363;52.772;-3.890;2022-11-21T09:21:49;9.70;99.90
25436;DHT22;13363;52.772;-3.890;2022-11-21T09:24:15;9.70;99.90
25436;DHT22;13363;52.772;-3.890;2022-11-21T09:26:41;9.70;99.90
25436;DHT22;13363;52.772;-3.890;2022-11-21T09:29:07;9.70;99.90
25436;DHT22;13363;52.772;-3.890;2022-11-21T09:31:36;9.70;99.90
25436;DHT22;13363;52.772;-3.890;2022-11-21T09:34:02;9.80;99.90
25436;DHT22;13363;52.772;-3.890;2022-11-21T09:36:28;9.80;99.90
25436;DHT22;13363;52.772;-3.890;2022-11-21T09:38:54;9.80;99.90
25436;DHT22;13363;52.772;-3.890;2022-11-21T09:41:31;9.70;99.90
25436;DHT22;13363;52.772;-3.890;2022-11-21T09:46:55;9.70;99.90
25436;DHT22;13363;52.772;-3.890;2022-11-21T09:49:24;9.80;99.90
25436;DHT22;13363;52.772;-3.890;2022-11-21T09:51:50;9.70;99.90
25436;DHT22;13363;52.772;-3.890;2022-11-21T09:54:31;9.70;99.90
25436;DHT22;13363;52.772;-3.890;2022-11-21T09:56:59;9.60;99.90
25436;DHT22;13363;52.772;-3.890;2022-11-21T09:59:36;9.50;99.90
25436;DHT22;13363;52.772;-3.890;2022-11-21T10:02:18;9.50;99.90
25436;DHT22;13363;52.772;-3.890;2022-11-21T10:04:48;9.50;99.90
25436;DHT22;13363;52.772;-3.890;2022-11-21T10:07:21;9.50;99.90
25436;DHT22;13363;52.772;-3.890;2022-11-21T10:10:17;9.50;99.90
25436;DHT22;13363;52.772;-3.890;2022-11-21T10:13:18;9.50;99.90
25436;DHT22;13363;52.772;-3.890;2022-11-21T10:16:00;9.40;99.90
25436;DHT22;13363;52.772;-3.890;2022-11-21T10:27:11;9.30;99.90
25436;DHT22;13363;52.772;-3.890;2022-11-21T10:29:46;9.40;99.90
25436;DHT22;13363;52.772;-3.890;2022-11-21T10:34:52;9.50;99.90
25436;DHT22;13363;52.772;-3.890;2022-11-21T10:37:47;9.50;99.90
25436;DHT22;13363;52.772;-3.890;2022-11-21T10:40:25;9.50;99.90
25436;DHT22;13363;52.772;-3.890;2022-11-21T10:42:59;9.60;99.90
25436;DHT22;13363;52.772;-3.890;2022-11-21T10:45:47;9.60;99.90
25436;DHT22;13363;52.772;-3.890;2022-11-21T10:48:13;9.60;99.90
25436;DHT22;13363;52.772;-3.890;2022-11-21T10:53:38;9.70;99.90
25436;DHT22;13363;52.772;-3.890;2022-11-21T10:56:25;9.70;99.90
25436;DHT22;13363;52.772;-3.890;2022-11-21T10:58:53;9.60;99.90
25436;DHT22;13363;52.772;-3.890;2022-11-21T11:01:21;9.60;99.90
25436;DHT22;13363;52.772;-3.890;2022-11-21T11:03:53;9.60;99.90
25436;DHT22;13363;52.772;-3.890;2022-11-21T11:06:29;9.60;99.90
25436;DHT22;13363;52.772;-3.890;2022-11-21T11:08:54;9.60;99.90
25436;DHT22;13363;52.772;-3.890;2022-11-21T11:11:21;9.60;99.90
25436;DHT22;13363;52.772;-3.890;2022-11-21T11:14:04;9.70;99.90
25436;DHT22;13363;52.772;-3.890;2022-11-21T11:16:34;9.70;99.90
25436;DHT22;13363;52.772;-3.890;2022-11-21T11:19:04;9.60;99.90
25436;DHT22;13363;52.772;-3.890;2022-11-21T11:26:50;9.50;99.90
25436;DHT22;13363;52.772;-3.890;2022-11-21T11:29:18;9.60;99.90
25436;DHT22;13363;52.772;-3.890;2022-11-21T11:34:40;9.60;99.90
25436;DHT22;13363;52.772;-3.890;2022-11-21T11:37:20;9.60;99.90
25436;DHT22;13363;52.772;-3.890;2022-11-21T11:46:18;9.50;99.90
25436;DHT22;13363;52.772;-3.890;2022-11-21T11:52:21;9.40;99.90
25436;DHT22;13363;52.772;-3.890;2022-11-21T11:54:54;9.40;99.90
25436;DHT22;13363;52.772;-3.890;2022-11-21T11:57:22;9.40;99.90
25436;DHT22;13363;52.772;-3.890;2022-11-21T12:00:02;9.50;99.90
25436;DHT22;13363;52.772;-3.890;2022-11-21T12:02:47;9.40;99.90
25436;DHT22;13363;52.772;-3.890;2022-11-21T12:05:22;9.40;99.90
25436;DHT22;13363;52.772;-3.890;2022-11-21T12:10:49;9.30;99.90
25436;DHT22;13363;52.772;-3.890;2022-11-21T12:13:35;9.30;99.90
25436;DHT22;13363;52.772;-3.890;2022-11-21T12:16:09;9.30;99.90
25436;DHT22;13363;52.772;-3.890;2022-11-21T12:21:15;9.30;99.90
25436;DHT22;13363;52.772;-3.890;2022-11-21T12:23:53;9.40;99.90
25436;DHT22;13363;52.772;-3.890;2022-11-21T12:29:11;9.30;99.90
25436;DHT22;13363;52.772;-3.890;2022-11-21T12:32:18;9.30;99.90
25436;DHT22;13363;52.772;-3.890;2022-11-21T12:35:16;9.30;99.90
25436;DHT22;13363;52.772;-3.890;2022-11-21T12:43:37;9.20;99.90
25436;DHT22;13363;52.772;-3.890;2022-11-21T12:46:22;9.20;99.90
25436;DHT22;13363;52.772;-3.890;2022-11-21T12:52:21;9.20;99.90
25436;DHT22;13363;52.772;-3.890;2022-11-21T13:00:41;9.10;99.90
25436;DHT22;13363;52.772;-3.890;2022-11-21T13:05:52;9.30;99.90
25436;DHT22;13363;52.772;-3.890;2022-11-21T13:08:26;9.20;99.90
25436;DHT22;13363;52.772;-3.890;2022-11-21T13:20:24;9.20;99.90
25436;DHT22;13363;52.772;-3.890;2022-11-21T13:23:01;9.30;99.90
25436;DHT22;13363;52.772;-3.890;2022-11-21T13:25:42;9.20;99.90
25436;DHT22;13363;52.772;-3.890;2022-11-21T13:30:50;9.20;99.90
25436;DHT22;13363;52.772;-3.890;2022-11-21T13:36:04;9.10;99.90
25436;DHT22;13363;52.772;-3.890;2022-11-21T13:39:22;9.20;99.90
25436;DHT22;13363;52.772;-3.890;2022-11-21T13:47:01;9.50;99.90
25436;DHT22;13363;52.772;-3.890;2022-11-21T13:58:08;9.50;99.90
25436;DHT22;13363;52.772;-3.890;2022-11-21T14:01:08;9.50;99.90
25436;DHT22;13363;52.772;-3.890;2022-11-21T14:09:29;9.50;99.90
25436;DHT22;13363;52.772;-3.890;2022-11-21T14:12:04;9.40;99.90
25436;DHT22;13363;52.772;-3.890;2022-11-21T14:14:39;9.50;99.90
25436;DHT22;13363;52.772;-3.890;2022-11-21T14:19:46;9.40;99.90
25436;DHT22;13363;52.772;-3.890;2022-11-21T14:22:27;9.40;99.90
25436;DHT22;13363;52.772;-3.890;2022-11-21T14:24:56;9.40;99.90
25436;DHT22;13363;52.772;-3.890;2022-11-21T14:27:30;9.40;99.90
25436;DHT22;13363;52.772;-3.890;2022-11-21T14:29:57;9.30;99.90
25436;DHT22;13363;52.772;-3.890;2022-11-21T14:32:28;9.20;99.90
25436;DHT22;13363;52.772;-3.890;2022-11-21T14:35:14;9.20;99.90
25436;DHT22;13363;52.772;-3.890;2022-11-21T14:37:43;9.40;99.90
25436;DHT22;13363;52.772;-3.890;2022-11-21T14:40:21;9.50;99.90
25436;DHT22;13363;52.772;-3.890;2022-11-21T14:42:47;9.50;99.90
25436;DHT22;13363;52.772;-3.890;2022-11-21T14:45:23;9.50;99.90
25436;DHT22;13363;52.772;-3.890;2022-11-21T14:47:51;9.50;99.90
25436;DHT22;13363;52.772;-3.890;2022-11-21T14:50:29;9.50;99.90
25436;DHT22;13363;52.772;-3.890;2022-11-21T14:52:55;9.40;99.90
25436;DHT22;13363;52.772;-3.890;2022-11-21T14:55:32;9.40;99.90
25436;DHT22;13363;52.772;-3.890;2022-11-21T14:58:00;9.30;99.90
25436;DHT22;13363;52.772;-3.890;2022-11-21T15:00:28;9.20;99.90
25436;DHT22;13363;52.772;-3.890;2022-11-21T15:02:56;9.10;99.90
25436;DHT22;13363;52.772;-3.890;2022-11-21T15:05:33;9.20;99.90
25436;DHT22;13363;52.772;-3.890;2022-11-21T15:07:59;9.10;99.90
25436;DHT22;13363;52.772;-3.890;2022-11-21T15:10:33;9.10;99.90
25436;DHT22;13363;52.772;-3.890;2022-11-21T15:13:04;9.10;99.90
25436;DHT22;13363;52.772;-3.890;2022-11-21T15:15:41;9.00;99.90
25436;DHT22;13363;52.772;-3.890;2022-11-21T15:18:26;9.00;99.90
25436;DHT22;13363;52.772;-3.890;2022-11-21T15:20:58;9.00;99.90
25436;DHT22;13363;52.772;-3.890;2022-11-21T15:23:34;9.00;99.90
25436;DHT22;13363;52.772;-3.890;2022-11-21T15:26:01;9.00;99.90
25436;DHT22;13363;52.772;-3.890;2022-11-21T15:28:29;9.10;99.90
25436;DHT22;13363;52.772;-3.890;2022-11-21T15:31:17;9.00;99.90
25436;DHT22;13363;52.772;-3.890;2022-11-21T15:33:57;9.00;99.90
25436;DHT22;13363;52.772;-3.890;2022-11-21T15:36:23;9.00;99.90
25436;DHT22;13363;52.772;-3.890;2022-11-21T15:41:26;9.10;99.90
25436;DHT22;13363;52.772;-3.890;2022-11-21T15:43:54;9.10;99.90
25436;DHT22;13363;52.772;-3.890;2022-11-21T15:46:27;9.20;99.90
25436;DHT22;13363;52.772;-3.890;2022-11-21T15:48:59;9.10;99.90
25436;DHT22;13363;52.772;-3.890;2022-11-21T15:51:42;9.20;99.90
25436;DHT22;13363;52.772;-3.890;2022-11-21T15:54:14;9.20;99.90
25436;DHT22;13363;52.772;-3.890;2022-11-21T15:56:40;9.10;99.90
25436;DHT22;13363;52.772;-3.890;2022-11-21T15:59:07;9.10;99.90
25436;DHT22;13363;52.772;-3.890;2022-11-21T16:01:33;9.10;99.90
25436;DHT22;13363;52.772;-3.890;2022-11-21T16:04:01;9.10;99.90
25436;DHT22;13363;52.772;-3.890;2022-11-21T16:06:27;9.10;99.90
25436;DHT22;13363;52.772;-3.890;2022-11-21T16:08:56;9.10;99.90
25436;DHT22;13363;52.772;-3.890;2022-11-21T16:11:35;9.00;99.90
25436;DHT22;13363;52.772;-3.890;2022-11-21T16:14:06;9.00;99.90
25436;DHT22;13363;52.772;-3.890;2022-11-21T16:16:37;9.10;99.90
25436;DHT22;13363;52.772;-3.890;2022-11-21T16:19:04;9.10;99.90
25436;DHT22;13363;52.772;-3.890;2022-11-21T16:21:30;9.20;99.90
25436;DHT22;13363;52.772;-3.890;2022-11-21T16:23:56;9.20;99.90
25436;DHT22;13363;52.772;-3.890;2022-11-21T16:26:22;9.20;99.90
25436;DHT22;13363;52.772;-3.890;2022-11-21T16:28:56;9.10;99.90
25436;DHT22;13363;52.772;-3.890;2022-11-21T16:31:25;9.10;99.90
25436;DHT22;13363;52.772;-3.890;2022-11-21T16:33:51;9.00;99.90
25436;DHT22;13363;52.772;-3.890;2022-11-21T16:36:25;9.00;99.90
25436;DHT22;13363;52.772;-3.890;2022-11-21T16:38:52;9.10;99.90
25436;DHT22;13363;52.772;-3.890;2022-11-21T16:41:19;9.10;99.90
25436;DHT22;13363;52.772;-3.890;2022-11-21T16:43:47;9.10;99.90
25436;DHT22;13363;52.772;-3.890;2022-11-21T16:46:13;9.00;99.90
25436;DHT22;13363;52.772;-3.890;2022-11-21T16:48:39;9.00;99.90
25436;DHT22;13363;52.772;-3.890;2022-11-21T16:51:17;9.00;99.90
25436;DHT22;13363;52.772;-3.890;2022-11-21T16:53:45;9.00;99.90
25436;DHT22;13363;52.772;-3.890;2022-11-21T16:56:11;9.00;99.90
25436;DHT22;13363;52.772;-3.890;2022-11-21T16:58:38;8.90;99.90
25436;DHT22;13363;52.772;-3.890;2022-11-21T17:01:13;8.90;99.90
25436;DHT22;13363;52.772;-3.890;2022-11-21T17:03:40;8.80;99.90
25436;DHT22;13363;52.772;-3.890;2022-11-21T17:06:07;8.80;99.90
25436;DHT22;13363;52.772;-3.890;2022-11-21T17:08:33;8.80;99.90
25436;DHT22;13363;52.772;-3.890;2022-11-21T17:11:13;8.80;99.90
25436;DHT22;13363;52.772;-3.890;2022-11-21T17:13:40;8.70;99.90
25436;DHT22;13363;52.772;-3.890;2022-11-21T17:16:07;8.60;99.90
25436;DHT22;13363;52.772;-3.890;2022-11-21T17:18:33;8.70;99.90
25436;DHT22;13363;52.772;-3.890;2022-11-21T17:21:02;8.60;99.90
25436;DHT22;13363;52.772;-3.890;2022-11-21T17:23:32;8.50;99.90
25436;DHT22;13363;52.772;-3.890;2022-11-21T17:26:06;8.50;99.90
25436;DHT22;13363;52.772;-3.890;2022-11-21T17:28:33;8.50;99.90
25436;DHT22;13363;52.772;-3.890;2022-11-21T17:31:03;8.60;99.90
25436;DHT22;13363;52.772;-3.890;2022-11-21T17:33:29;8.50;99.90
25436;DHT22;13363;52.772;-3.890;2022-11-21T17:35:55;8.70;99.90